createdAt,value
2018-03-26T00:02:18.928Z,4.70
2018-03-26T00:04:46.502Z,5.37
2018-03-26T00:07:14.055Z,4.23
2018-03-26T00:09:41.620Z,3.87
2018-03-26T00:12:09.194Z,4.27
2018-03-26T00:14:36.767Z,5.40
2018-03-26T00:17:04.310Z,4.97
2018-03-26T00:19:32.105Z,4.53
2018-03-26T00:21:59.659Z,5.67
2018-03-26T00:24:27.189Z,4.50
2018-03-26T00:26:54.746Z,7.40
2018-03-26T00:29:22.275Z,6.10
2018-03-26T00:31:49.827Z,6.60
2018-03-26T00:34:17.431Z,6.17
2018-03-26T00:36:44.976Z,5.23
2018-03-26T00:39:12.511Z,5.83
2018-03-26T00:41:40.231Z,5.87
2018-03-26T00:44:07.778Z,5.50
2018-03-26T00:46:35.317Z,6.37
2018-03-26T00:49:03.046Z,5.90
2018-03-26T00:51:30.591Z,6.03
2018-03-26T00:53:58.132Z,7.10
2018-03-26T00:56:25.702Z,8.03
2018-03-26T00:58:53.239Z,8.37
2018-03-26T01:01:20.782Z,7.60
2018-03-26T01:03:48.353Z,6.47
2018-03-26T01:06:15.882Z,8.13
2018-03-26T01:08:43.419Z,6.77
2018-03-26T01:11:11.080Z,6.53
2018-03-26T01:13:38.622Z,7.10
2018-03-26T01:16:06.159Z,8.17
2018-03-26T01:18:33.723Z,7.37
2018-03-26T01:21:01.303Z,8.03
2018-03-26T01:23:28.841Z,6.87
2018-03-26T01:25:56.422Z,8.47
2018-03-26T01:28:23.949Z,8.07
2018-03-26T01:30:51.497Z,8.37
2018-03-26T01:33:19.361Z,9.60
2018-03-26T01:35:46.886Z,9.17
2018-03-26T01:38:14.429Z,11.83
2018-03-26T01:40:42.002Z,11.90
2018-03-26T01:43:09.551Z,14.53
2018-03-26T01:45:37.116Z,13.63
2018-03-26T01:48:04.848Z,12.10
2018-03-26T01:50:32.423Z,13.00
2018-03-26T01:52:59.979Z,12.30
2018-03-26T01:55:27.543Z,12.37
2018-03-26T01:57:55.081Z,11.80
2018-03-26T02:00:22.629Z,15.20
2018-03-26T02:02:50.223Z,14.93
2018-03-26T02:05:18.494Z,12.40
2018-03-26T02:07:46.055Z,12.70
2018-03-26T02:10:13.771Z,12.70
2018-03-26T02:12:41.322Z,12.00
2018-03-26T02:15:08.880Z,13.03
2018-03-26T02:17:36.750Z,17.53
2018-03-26T02:20:04.336Z,13.83
2018-03-26T02:22:31.869Z,16.90
2018-03-26T02:24:59.451Z,14.40
2018-03-26T02:27:26.999Z,13.87
2018-03-26T02:29:54.534Z,10.33
2018-03-26T02:32:22.117Z,11.67
2018-03-26T02:34:49.662Z,9.27
2018-03-26T02:37:17.237Z,8.20
2018-03-26T02:39:44.808Z,7.33
2018-03-26T02:42:12.358Z,9.63
2018-03-26T02:44:39.943Z,10.60
2018-03-26T02:47:07.503Z,9.33
2018-03-26T02:49:35.053Z,8.57
2018-03-26T02:52:02.593Z,9.20
2018-03-26T02:54:30.180Z,7.83
2018-03-26T02:56:57.729Z,9.10
2018-03-26T02:59:25.274Z,7.67
2018-03-26T03:01:52.953Z,4.80
2018-03-26T03:04:20.495Z,3.97
2018-03-26T03:06:48.038Z,4.77
2018-03-26T03:09:15.625Z,4.53
2018-03-26T03:11:43.161Z,5.10
2018-03-26T03:14:10.696Z,4.40
2018-03-26T03:16:38.406Z,3.77
2018-03-26T03:19:05.945Z,3.17
2018-03-26T03:21:33.490Z,3.43
2018-03-26T03:24:01.065Z,2.80
2018-03-26T03:26:28.609Z,3.60
2018-03-26T03:28:56.138Z,3.27
2018-03-26T03:31:23.712Z,5.23
2018-03-26T03:33:51.283Z,2.77
2018-03-26T03:36:18.814Z,3.67
2018-03-26T03:38:46.366Z,3.23
2018-03-26T03:41:13.902Z,2.73
2018-03-26T03:43:41.451Z,2.27
2018-03-26T03:46:08.974Z,7.83
2018-03-26T03:48:36.543Z,7.27
2018-03-26T03:51:04.428Z,6.13
2018-03-26T03:53:31.959Z,8.10
2018-03-26T03:55:59.495Z,8.93
2018-03-26T03:58:27.078Z,5.10
2018-03-26T04:00:54.617Z,10.87
2018-03-26T04:03:22.196Z,12.13
2018-03-26T04:05:49.910Z,9.00
2018-03-26T04:08:17.481Z,9.17
2018-03-26T04:10:45.009Z,9.37
2018-03-26T04:13:12.826Z,7.53
2018-03-26T04:15:40.375Z,4.27
2018-03-26T04:18:08.076Z,4.10
2018-03-26T04:20:35.669Z,5.13
2018-03-26T04:23:03.210Z,4.57
2018-03-26T04:25:30.761Z,4.93
2018-03-26T04:27:58.413Z,6.53
2018-03-26T04:30:25.947Z,8.47
2018-03-26T04:32:53.486Z,7.63
2018-03-26T04:35:21.105Z,6.00
2018-03-26T04:37:48.606Z,8.60
2018-03-26T04:40:16.150Z,11.47
2018-03-26T04:42:43.817Z,9.97
2018-03-26T04:45:11.376Z,9.13
2018-03-26T04:47:38.917Z,7.83
2018-03-26T04:50:06.490Z,10.13
2018-03-26T04:52:34.031Z,14.10
2018-03-26T04:55:01.590Z,11.33
2018-03-26T04:57:29.166Z,14.23
2018-03-26T04:59:56.713Z,12.60
2018-03-26T05:02:24.269Z,10.87
2018-03-26T05:04:51.856Z,11.93
2018-03-26T05:07:19.411Z,11.70
2018-03-26T05:09:46.951Z,12.53
2018-03-26T05:12:14.609Z,13.13
2018-03-26T05:14:42.146Z,13.93
2018-03-26T05:17:09.679Z,11.27
2018-03-26T05:19:37.285Z,13.40
2018-03-26T05:22:04.823Z,12.33
2018-03-26T05:24:32.367Z,11.93
2018-03-26T05:27:00.250Z,11.80
2018-03-26T05:29:27.794Z,11.10
2018-03-26T05:31:56.233Z,15.63
2018-03-26T05:34:23.946Z,14.00
2018-03-26T05:36:51.512Z,20.40
2018-03-26T05:39:19.054Z,17.10
2018-03-26T05:41:46.730Z,25.80
2018-03-26T05:44:14.285Z,45.23
2018-03-26T05:46:41.830Z,19.03
2018-03-26T05:49:09.578Z,19.57
2018-03-26T05:51:37.119Z,33.20
2018-03-26T05:54:04.660Z,22.70
2018-03-26T05:56:32.255Z,15.43
2018-03-26T05:58:59.811Z,16.30
2018-03-26T06:01:27.368Z,15.17
2018-03-26T06:03:54.975Z,14.10
2018-03-26T06:06:22.533Z,14.50
2018-03-26T06:08:50.087Z,14.57
2018-03-26T06:11:17.705Z,10.13
2018-03-26T06:13:45.241Z,8.30
2018-03-26T06:16:12.777Z,9.47
2018-03-26T06:18:40.361Z,7.77
2018-03-26T06:21:07.932Z,13.20
2018-03-26T06:23:35.491Z,9.70
2018-03-26T06:26:03.091Z,9.00
2018-03-26T06:28:30.655Z,7.67
2018-03-26T06:30:58.221Z,12.33
2018-03-26T06:33:25.807Z,11.67
2018-03-26T06:35:53.350Z,21.73
2018-03-26T06:38:23.431Z,12.20
2018-03-26T06:40:51.182Z,11.53
2018-03-26T06:43:18.749Z,14.67
2018-03-26T06:45:46.287Z,12.20
2018-03-26T06:48:13.883Z,14.80
2018-03-26T06:50:41.423Z,9.50
2018-03-26T06:53:08.960Z,9.67
2018-03-26T06:55:36.522Z,7.83
2018-03-26T06:58:04.079Z,9.37
2018-03-26T07:00:31.616Z,10.23
2018-03-26T07:02:59.321Z,9.33
2018-03-26T07:05:26.861Z,9.53
2018-03-26T07:07:54.412Z,9.37
2018-03-26T07:10:21.996Z,11.00
2018-03-26T07:12:49.530Z,7.83
2018-03-26T07:15:17.077Z,16.77
2018-03-26T07:17:44.649Z,10.27
2018-03-26T07:20:12.209Z,13.73
2018-03-26T07:22:39.781Z,10.73
2018-03-26T07:25:07.672Z,9.30
2018-03-26T07:27:35.248Z,18.33
2018-03-26T07:30:02.808Z,30.70
2018-03-26T07:32:30.421Z,26.90
2018-03-26T07:34:57.963Z,9.53
2018-03-26T07:37:25.518Z,22.37
2018-03-26T07:39:53.083Z,11.90
2018-03-26T07:42:20.637Z,22.27
2018-03-26T07:44:48.177Z,39.37
2018-03-26T07:47:15.920Z,29.07
2018-03-26T07:49:43.463Z,9.43
2018-03-26T07:52:11.000Z,14.33
2018-03-26T07:54:38.596Z,17.03
2018-03-26T07:57:06.125Z,8.43
2018-03-26T07:59:33.678Z,8.23
2018-03-26T08:02:01.254Z,7.77
2018-03-26T08:04:28.799Z,14.67
2018-03-26T08:06:56.354Z,13.23
2018-03-26T08:09:23.929Z,13.73
2018-03-26T08:11:51.479Z,13.93
2018-03-26T08:14:19.024Z,9.40
2018-03-26T08:16:46.622Z,11.20
2018-03-26T08:19:14.170Z,11.70
2018-03-26T08:21:41.710Z,10.27
2018-03-26T08:24:09.282Z,8.43
2018-03-26T08:26:36.839Z,6.53
2018-03-26T08:29:04.381Z,9.73
2018-03-26T08:31:32.106Z,7.70
2018-03-26T08:33:59.648Z,11.47
2018-03-26T08:36:27.243Z,21.67
2018-03-26T08:38:54.782Z,22.73
2018-03-26T08:41:22.338Z,35.87
2018-03-26T08:43:50.023Z,15.67
2018-03-26T08:46:17.573Z,11.50
2018-03-26T08:48:45.117Z,5.33
2018-03-26T08:51:12.713Z,23.93
2018-03-26T08:53:40.318Z,16.03
2018-03-26T08:56:07.849Z,20.30
2018-03-26T08:58:35.713Z,13.97
2018-03-26T09:01:03.254Z,7.57
2018-03-26T09:03:30.793Z,15.30
2018-03-26T09:05:58.473Z,8.80
2018-03-26T09:08:26.022Z,12.47
2018-03-26T09:10:53.567Z,23.87
2018-03-26T09:13:21.307Z,14.90
2018-03-26T09:15:48.850Z,6.73
2018-03-26T09:18:16.387Z,14.23
2018-03-26T09:20:44.182Z,24.80
2018-03-26T09:23:11.757Z,25.17
2018-03-26T09:25:39.319Z,15.33
2018-03-26T09:28:07.002Z,11.70
2018-03-26T09:30:34.549Z,15.00
2018-03-26T09:33:02.092Z,19.53
2018-03-26T09:35:29.675Z,16.93
2018-03-26T09:37:57.231Z,38.50
2018-03-26T09:40:24.806Z,32.10
2018-03-26T09:42:52.404Z,17.33
2018-03-26T09:45:19.958Z,29.30
2018-03-26T09:47:47.541Z,19.97
2018-03-26T09:50:15.231Z,8.67
2018-03-26T09:52:42.791Z,13.90
2018-03-26T09:55:10.359Z,10.23
2018-03-26T09:57:38.089Z,12.53
2018-03-26T10:00:05.670Z,11.40
2018-03-26T10:02:33.211Z,8.83
2018-03-26T10:05:00.781Z,7.03
2018-03-26T10:07:28.321Z,9.97
2018-03-26T10:09:55.872Z,9.97
2018-03-26T10:12:23.454Z,9.23
2018-03-26T10:14:50.993Z,9.43
2018-03-26T10:17:18.552Z,10.57
2018-03-26T10:19:46.176Z,10.80
2018-03-26T10:22:13.703Z,12.47
2018-03-26T10:24:41.238Z,8.87
2018-03-26T10:27:08.805Z,6.73
2018-03-26T10:29:36.351Z,14.27
2018-03-26T10:32:03.898Z,16.97
2018-03-26T10:34:31.484Z,14.37
2018-03-26T10:36:59.026Z,9.83
2018-03-26T10:39:26.585Z,17.30
2018-03-26T10:41:54.305Z,9.80
2018-03-26T10:44:21.857Z,8.17
2018-03-26T10:46:49.415Z,12.17
2018-03-26T10:49:17.102Z,29.17
2018-03-26T10:51:44.643Z,45.00
2018-03-26T10:54:12.196Z,54.53
2018-03-26T10:56:39.775Z,24.50
2018-03-26T10:59:07.317Z,12.73
2018-03-26T11:01:34.841Z,14.20
2018-03-26T11:04:02.426Z,8.73
2018-03-26T11:06:29.969Z,21.57
2018-03-26T11:08:57.517Z,14.43
2018-03-26T11:11:25.095Z,22.87
2018-03-26T11:13:52.643Z,10.90
2018-03-26T11:16:20.201Z,12.57
2018-03-26T11:18:47.793Z,10.27
2018-03-26T11:21:15.355Z,11.03
2018-03-26T11:23:42.903Z,16.90
2018-03-26T11:26:10.768Z,9.70
2018-03-26T11:28:38.302Z,9.53
2018-03-26T11:31:05.844Z,10.57
2018-03-26T11:33:33.432Z,7.83
2018-03-26T11:36:00.976Z,10.70
2018-03-26T11:38:28.526Z,10.17
2018-03-26T11:40:56.395Z,8.90
2018-03-26T11:43:23.943Z,8.70
2018-03-26T11:45:51.481Z,9.33
2018-03-26T11:48:19.057Z,12.33
2018-03-26T11:50:46.598Z,9.73
2018-03-26T11:53:14.154Z,11.73
2018-03-26T11:55:42.003Z,8.77
2018-03-26T11:58:09.556Z,12.33
2018-03-26T12:00:37.079Z,8.50
2018-03-26T12:03:05.234Z,9.90
2018-03-26T12:05:32.804Z,13.67
2018-03-26T12:08:00.350Z,12.50
2018-03-26T12:10:28.097Z,14.20
2018-03-26T12:12:55.646Z,117.10
2018-03-26T12:15:23.183Z,12.80
2018-03-26T12:17:50.786Z,13.33
2018-03-26T12:20:30.070Z,19.30
2018-03-26T12:22:57.799Z,10.20
2018-03-26T12:25:25.381Z,11.20
2018-03-26T12:28:04.569Z,8.50
2018-03-26T12:30:32.146Z,11.27
2018-03-26T12:32:59.687Z,12.67
2018-03-26T12:35:39.517Z,13.67
2018-03-26T12:38:07.065Z,16.83
2018-03-26T12:40:46.178Z,8.83
2018-03-26T12:43:13.722Z,12.33
2018-03-26T12:45:52.980Z,18.17
2018-03-26T12:48:20.526Z,15.57
2018-03-26T12:50:59.748Z,17.53
2018-03-26T12:53:27.299Z,14.77
2018-03-26T12:55:54.839Z,16.40
2018-03-26T12:58:34.263Z,17.43
2018-03-26T13:01:13.550Z,22.17
2018-03-26T13:03:41.134Z,19.93
2018-03-26T13:06:08.692Z,18.40
2018-03-26T13:08:36.253Z,18.97
2018-03-26T13:11:04.145Z,25.17
2018-03-26T13:13:31.722Z,24.53
2018-03-26T13:15:59.270Z,19.80
2018-03-26T13:18:26.990Z,11.53
2018-03-26T13:20:54.543Z,11.67
2018-03-26T13:23:22.132Z,17.07
2018-03-26T13:25:49.758Z,11.67
2018-03-26T13:28:17.314Z,17.00
2018-03-26T13:30:44.903Z,18.67
2018-03-26T13:33:12.499Z,12.97
2018-03-26T13:35:40.043Z,15.93
2018-03-26T13:38:07.622Z,27.53
2018-03-26T13:40:35.248Z,20.93
2018-03-26T13:43:02.817Z,111.63
2018-03-26T13:45:30.375Z,33.03
2018-03-26T13:47:57.969Z,15.77
2018-03-26T13:50:25.535Z,13.80
2018-03-26T13:52:53.095Z,15.33
2018-03-26T13:55:20.691Z,12.63
2018-03-26T13:57:48.887Z,15.73
2018-03-26T14:00:16.466Z,16.83
2018-03-26T14:02:44.056Z,13.20
2018-03-26T14:05:11.600Z,15.33
2018-03-26T14:07:39.156Z,15.83
2018-03-26T14:10:18.578Z,18.00
2018-03-26T14:12:57.796Z,18.60
2018-03-26T14:15:37.024Z,15.07
2018-03-26T14:18:06.446Z,35.97
2018-03-26T14:20:34.014Z,23.03
2018-03-26T14:23:01.626Z,22.10
2018-03-26T14:25:29.191Z,23.20
2018-03-26T14:27:56.755Z,18.40
2018-03-26T14:30:24.354Z,18.63
2018-03-26T14:32:51.902Z,21.63
2018-03-26T14:38:25.763Z,35.27
2018-03-26T14:40:53.491Z,18.90
2018-03-26T14:43:21.066Z,32.93
2018-03-26T14:45:48.618Z,20.97
2018-03-26T14:48:16.323Z,17.30
2018-03-26T14:50:43.878Z,18.53
2018-03-26T14:53:11.423Z,19.00
2018-03-26T14:55:39.015Z,25.83
2018-03-26T14:58:06.585Z,28.37
2018-03-26T15:00:34.144Z,13.23
2018-03-26T15:03:01.753Z,19.10
2018-03-26T15:05:29.312Z,18.20
2018-03-26T15:07:56.876Z,15.50
2018-03-26T15:10:24.462Z,16.37
2018-03-26T15:12:52.208Z,23.23
2018-03-26T15:15:19.770Z,24.23
2018-03-26T15:17:47.382Z,19.30
2018-03-26T15:20:14.984Z,18.37
2018-03-26T15:22:42.570Z,40.47
2018-03-26T15:25:10.204Z,32.00
2018-03-26T15:27:38.514Z,26.47
2018-03-26T15:30:06.088Z,27.57
2018-03-26T15:32:33.983Z,26.00
2018-03-26T15:35:01.537Z,29.30
2018-03-26T15:37:29.125Z,24.63
2018-03-26T15:39:56.731Z,29.73
2018-03-26T15:42:24.348Z,29.57
2018-03-26T15:44:52.016Z,30.73
2018-03-26T15:47:19.563Z,38.10
2018-03-26T15:49:47.122Z,52.60
2018-03-26T15:52:14.890Z,76.87
2018-03-26T15:54:42.465Z,64.93
2018-03-26T15:57:10.050Z,51.10
2018-03-26T15:59:37.656Z,44.20
2018-03-26T16:02:04.688Z,35.17
2018-03-26T16:04:32.315Z,33.80
2018-03-26T16:07:00.007Z,30.00
2018-03-26T16:09:27.566Z,48.03
2018-03-26T16:11:55.242Z,42.40
2018-03-26T16:14:22.978Z,45.33
2018-03-26T16:16:50.538Z,45.87
2018-03-26T16:19:18.090Z,75.73
2018-03-26T16:21:45.698Z,98.57
2018-03-26T16:24:13.259Z,71.23
2018-03-26T16:26:40.816Z,47.53
2018-03-26T16:29:08.500Z,94.60
2018-03-26T16:31:36.055Z,44.47
2018-03-26T16:34:03.621Z,40.23
2018-03-26T16:36:31.534Z,39.77
2018-03-26T16:38:59.086Z,48.50
2018-03-26T16:41:38.464Z,43.07
2018-03-26T16:44:06.066Z,49.93
2018-03-26T16:46:33.632Z,41.27
2018-03-26T16:49:01.218Z,53.63
2018-03-26T16:51:28.797Z,68.83
2018-03-26T16:53:56.347Z,53.77
2018-03-26T16:56:24.252Z,53.47
2018-03-26T16:58:51.842Z,44.90
2018-03-26T17:01:19.420Z,59.13
2018-03-26T17:03:47.221Z,55.20
2018-03-26T17:06:14.765Z,48.13
2018-03-26T17:08:42.314Z,87.33
2018-03-26T17:11:09.907Z,48.67
2018-03-26T17:13:37.450Z,48.37
2018-03-26T17:16:05.057Z,53.53
2018-03-26T17:18:32.652Z,76.47
2018-03-26T17:21:00.274Z,47.13
2018-03-26T17:23:27.852Z,37.17
2018-03-26T17:25:55.477Z,39.03
2018-03-26T17:28:23.057Z,36.07
2018-03-26T17:30:50.644Z,57.13
2018-03-26T17:33:18.288Z,40.60
2018-03-26T17:35:45.853Z,35.73
2018-03-26T17:38:13.415Z,41.17
2018-03-26T17:40:41.033Z,39.13
2018-03-26T17:43:08.583Z,42.03
2018-03-26T17:45:36.141Z,41.97
2018-03-26T17:48:03.861Z,43.30
2018-03-26T17:50:31.422Z,55.07
2018-03-26T17:52:58.969Z,45.17
2018-03-26T17:55:26.551Z,38.83
2018-03-26T17:57:54.115Z,32.13
2018-03-26T18:00:21.671Z,36.73
2018-03-26T18:02:49.385Z,36.37
2018-03-26T18:05:16.950Z,39.60
2018-03-26T18:07:44.535Z,41.53
2018-03-26T18:10:12.290Z,32.90
2018-03-26T18:12:39.828Z,37.07
2018-03-26T18:15:07.403Z,55.77
2018-03-26T18:17:35.286Z,50.37
2018-03-26T18:20:03.166Z,40.30
2018-03-26T18:22:30.790Z,36.93
2018-03-26T18:24:58.602Z,43.23
2018-03-26T18:27:26.153Z,35.57
2018-03-26T18:29:53.715Z,39.17
2018-03-26T18:32:21.307Z,37.80
2018-03-26T18:34:48.866Z,38.33
2018-03-26T18:37:16.409Z,61.37
2018-03-26T18:39:43.965Z,57.53
2018-03-26T18:42:11.542Z,60.63
2018-03-26T18:44:39.287Z,52.23
2018-03-26T18:47:06.848Z,52.67
2018-03-26T18:49:34.437Z,48.57
2018-03-26T18:52:02.123Z,43.93
2018-03-26T18:54:29.690Z,76.10
2018-03-26T18:56:58.205Z,48.00
2018-03-26T18:59:25.914Z,36.30
2018-03-26T19:01:53.470Z,38.60
2018-03-26T19:04:21.056Z,50.67
2018-03-26T19:06:48.822Z,55.80
2018-03-26T19:09:16.386Z,45.83
2018-03-26T19:11:43.947Z,50.80
2018-03-26T19:14:11.549Z,48.20
2018-03-26T19:16:39.143Z,41.67
2018-03-26T19:19:06.701Z,46.47
2018-03-26T19:21:34.606Z,40.13
2018-03-26T19:24:02.164Z,46.60
2018-03-26T19:26:29.723Z,42.60
2018-03-26T19:28:57.354Z,43.23
2018-03-26T19:31:25.637Z,47.30
2018-03-26T19:33:53.181Z,44.30
2018-03-26T19:36:20.926Z,48.23
2018-03-26T19:38:48.497Z,52.00
2018-03-26T19:41:16.068Z,44.07
2018-03-26T19:43:43.670Z,52.13
2018-03-26T19:46:11.247Z,43.53
2018-03-26T19:48:38.825Z,44.03
2018-03-26T19:51:06.422Z,53.13
2018-03-26T19:53:33.974Z,45.93
2018-03-26T19:56:01.541Z,54.00
2018-03-26T19:58:29.608Z,51.13
2018-03-26T20:00:57.166Z,49.40
2018-03-26T20:03:24.724Z,49.63
2018-03-26T20:05:52.453Z,54.40
2018-03-26T20:08:20.010Z,54.63
2018-03-26T20:10:47.563Z,94.20
2018-03-26T20:13:15.241Z,67.33
2018-03-26T20:15:42.799Z,59.07
2018-03-26T20:18:10.356Z,54.57
2018-03-26T20:20:37.961Z,57.23
2018-03-26T20:23:05.541Z,53.40
2018-03-26T20:25:33.088Z,49.50
2018-03-26T20:28:00.690Z,48.17
2018-03-26T20:30:28.235Z,43.67
2018-03-26T20:32:55.798Z,45.03
2018-03-26T20:35:23.687Z,44.70
2018-03-26T20:37:51.241Z,53.87
2018-03-26T20:40:18.817Z,66.37
2018-03-26T20:42:46.554Z,72.53
2018-03-26T20:45:14.106Z,78.33
2018-03-26T20:47:41.658Z,76.53
2018-03-26T20:50:09.266Z,82.63
2018-03-26T20:52:36.809Z,83.53
2018-03-26T20:55:04.410Z,77.63
2018-03-26T20:57:32.011Z,87.17
2018-03-26T20:59:59.582Z,81.63
2018-03-26T21:02:27.146Z,91.10
2018-03-26T21:04:54.871Z,79.70
2018-03-26T21:07:22.428Z,77.43
2018-03-26T21:09:49.987Z,79.77
2018-03-26T21:12:17.585Z,81.23
2018-03-26T21:14:45.140Z,76.90
2018-03-26T21:17:12.743Z,77.97
2018-03-26T21:19:40.610Z,82.90
2018-03-26T21:22:08.180Z,77.40
2018-03-26T21:24:35.736Z,93.60
2018-03-26T21:27:03.625Z,80.37
2018-03-26T21:29:31.173Z,99.30
2018-03-26T21:31:58.750Z,108.23
2018-03-26T21:34:26.487Z,125.30
2018-03-26T21:36:54.054Z,107.87
2018-03-26T21:39:21.609Z,115.57
2018-03-26T21:41:49.222Z,106.00
2018-03-26T21:44:16.798Z,125.37
2018-03-26T21:46:44.354Z,127.97
2018-03-26T21:49:12.070Z,135.77
2018-03-26T21:51:39.617Z,129.80
2018-03-26T21:54:07.200Z,130.07
2018-03-26T21:56:34.900Z,145.63
2018-03-26T21:59:02.466Z,150.70
2018-03-26T22:01:30.029Z,152.07
2018-03-26T22:03:57.897Z,146.00
2018-03-26T22:06:25.455Z,145.07
2018-03-26T22:08:53.013Z,140.43
2018-03-26T22:11:20.585Z,144.13
2018-03-26T22:13:48.147Z,134.77
2018-03-26T22:16:15.727Z,127.40
2018-03-26T22:18:43.467Z,133.67
2018-03-26T22:21:11.018Z,122.57
2018-03-26T22:23:38.600Z,128.97
2018-03-26T22:26:06.205Z,128.50
2018-03-26T22:28:33.761Z,124.67
2018-03-26T22:31:01.328Z,153.53
2018-03-26T22:33:28.918Z,140.93
2018-03-26T22:35:56.478Z,138.10
2018-03-26T22:38:24.037Z,147.47
2018-03-26T22:40:51.616Z,159.30
2018-03-26T22:43:19.170Z,170.53
2018-03-26T22:45:46.899Z,167.37
2018-03-26T22:48:14.471Z,172.77
2018-03-26T22:50:42.070Z,174.30
2018-03-26T22:53:09.642Z,196.80
2018-03-26T22:55:37.192Z,168.53
2018-03-26T22:58:04.759Z,186.57
2018-03-26T23:00:32.353Z,187.30
2018-03-26T23:02:59.913Z,158.33
2018-03-26T23:05:27.470Z,169.57
2018-03-26T23:07:55.150Z,160.37
2018-03-26T23:10:22.710Z,175.97
2018-03-26T23:12:50.251Z,157.67
2018-03-26T23:15:17.846Z,174.83
2018-03-26T23:17:45.394Z,153.67
2018-03-26T23:20:12.950Z,157.87
2018-03-26T23:22:48.374Z,143.13
2018-03-26T23:25:15.926Z,131.13
2018-03-26T23:27:43.485Z,157.57
2018-03-26T23:30:11.221Z,173.53
2018-03-26T23:32:38.772Z,150.80
2018-03-26T23:35:06.308Z,138.53
2018-03-26T23:37:34.182Z,151.17
2018-03-26T23:40:01.730Z,186.17
2018-03-26T23:42:29.274Z,161.87
2018-03-26T23:44:56.968Z,145.83
2018-03-26T23:47:24.522Z,123.40
2018-03-26T23:49:52.078Z,108.13
2018-03-26T23:52:19.889Z,102.97
2018-03-26T23:54:47.440Z,113.90
2018-03-26T23:57:14.986Z,105.77
2018-03-26T23:59:42.867Z,115.50
